Time;durP1;ratioP1;P1;durP2;ratioP2;P2;SDS_P1;SDS_P2;PMS_P1;PMS_P2;Temp;Humidity;BMP_temperature;BMP_pressure;BME280_temperature;BME280_humidity;BME280_pressure;Samples;Min_cycle;Max_cycle;Signal;HPM_P1;HPM_P2
2023/12/21 00:01:36;;;;;;;;;;;;;;;2.83;73.61;100406.38;106522;1268;107971;-64
2023/12/21 00:04:05;;;;;;;;;;;;;;;2.71;73.60;100408.66;106509;1269;108127;-64
2023/12/21 00:06:33;;;;;;;;;;;;;;;2.66;73.74;100412.35;106430;1269;97932;-67
2023/12/21 00:09:01;;;;;;;;;;;;;;;2.60;73.38;100417.51;106468;1272;97765;-66
2023/12/21 00:11:29;;;;;;;;;;;;;;;2.53;73.43;100420.06;106526;1268;111401;-65
2023/12/21 00:13:58;;;;;;;;;;;;;;;2.47;73.39;100419.17;106477;1268;108111;-63
2023/12/21 00:16:26;;;;;;;;;;;;;;;2.41;73.32;100413.16;106470;1270;108614;-65
2023/12/21 00:18:57;;;;;;;;;;;;;;;2.33;73.39;100415.00;106466;1273;97879;-65
2023/12/21 00:21:25;;;;;;;;;;;;;;;2.26;73.28;100421.11;106485;1268;98004;-66
2023/12/21 00:23:53;;;;;;;;;;;;;;;2.17;73.28;100419.50;106454;1272;111079;-64
2023/12/21 00:26:22;;;;;;;;;;;;;;;2.09;73.34;100416.26;106421;1270;108504;-64
2023/12/21 00:28:50;;;;;;;;;;;;;;;2.04;73.43;100419.06;106465;1270;108082;-62
2023/12/21 00:31:18;;;;;;;;;;;;;;;2.00;73.50;100424.08;106431;1273;97887;-64
2023/12/21 00:33:46;;;;;;;;;;;;;;;1.94;73.58;100421.77;106472;1273;97984;-64
2023/12/21 00:36:18;;;;;;;;;;;;;;;1.90;73.69;100421.98;106453;1273;112478;-65
2023/12/21 00:38:46;;;;;;;;;;;;;;;1.86;73.65;100430.86;106484;1273;108936;-66
2023/12/21 00:41:14;;;;;;;;;;;;;;;1.81;73.64;100432.39;106447;1270;108212;-63
2023/12/21 00:43:42;;;;;;;;;;;;;;;1.78;73.66;100435.77;106435;1271;97881;-66
2023/12/21 00:46:10;;;;;;;;;;;;;;;1.74;73.69;100436.87;106435;1269;98221;-67
2023/12/21 00:48:38;;;;;;;;;;;;;;;1.70;73.82;100438.87;106457;1271;111933;-64
2023/12/21 00:51:07;;;;;;;;;;;;;;;1.66;73.97;100439.95;106489;1273;107908;-64
2023/12/21 00:53:35;;;;;;;;;;;;;;;1.62;74.03;100440.17;106468;1274;108171;-69
2023/12/21 00:56:07;;;;;;;;;;;;;;;1.60;74.20;100442.80;106462;1268;97874;-65
2023/12/21 00:58:35;;;;;;;;;;;;;;;1.56;74.06;100446.87;106421;1273;97869;-64
2023/12/21 01:01:04;;;;;;;;;;;;;;;1.53;74.23;100443.18;106404;1268;111487;-63
2023/12/21 01:03:32;;;;;;;;;;;;;;;1.51;74.10;100444.52;106432;1273;107510;-64
2023/12/21 01:06:01;;;;;;;;;;;;;;;1.48;74.04;100445.23;106457;1269;108222;-64
2023/12/21 01:08:29;;;;;;;;;;;;;;;1.44;74.34;100447.77;106448;1270;97968;-66
2023/12/21 01:10:57;;;;;;;;;;;;;;;1.39;74.27;100445.88;106478;1272;97732;-67
2023/12/21 01:13:25;;;;;;;;;;;;;;;1.38;74.51;100448.59;106458;1269;111467;-64
2023/12/21 01:15:53;;;;;;;;;;;;;;;1.41;74.83;100448.40;106414;1270;107758;-64
2023/12/21 01:18:22;;;;;;;;;;;;;;;1.49;75.29;100448.52;106442;1270;107230;-65
2023/12/21 01:20:50;;;;;;;;;;;;;;;1.55;74.97;100442.35;106484;1274;97850;-64
2023/12/21 01:23:18;;;;;;;;;;;;;;;1.53;74.78;100440.31;106404;1270;97838;-63
2023/12/21 01:25:47;;;;;;;;;;;;;;;1.54;74.99;100443.65;106433;1271;111368;-63
2023/12/21 01:28:15;;;;;;;;;;;;;;;1.58;75.90;100445.38;106455;1272;107996;-65
2023/12/21 01:30:43;;;;;;;;;;;;;;;1.61;76.32;100439.38;106476;1270;108268;-65
2023/12/21 01:33:11;;;;;;;;;;;;;;;1.64;76.48;100437.21;106394;1273;97972;-65
2023/12/21 01:35:40;;;;;;;;;;;;;;;1.70;76.94;100437.59;106441;1273;97735;-64
2023/12/21 01:38:08;;;;;;;;;;;;;;;1.72;76.33;100441.72;106454;1270;111558;-65
2023/12/21 01:40:36;;;;;;;;;;;;;;;1.67;76.07;100440.08;106446;1271;108504;-67
2023/12/21 01:43:05;;;;;;;;;;;;;;;1.66;76.21;100441.74;106402;1273;108432;-64
2023/12/21 01:45:33;;;;;;;;;;;;;;;1.62;76.13;100445.16;106469;1270;97874;-65
2023/12/21 01:48:02;;;;;;;;;;;;;;;1.64;76.70;100446.80;106447;1269;98513;-65
2023/12/21 01:50:30;;;;;;;;;;;;;;;1.69;76.96;100445.10;106520;1273;110771;-65
2023/12/21 01:52:59;;;;;;;;;;;;;;;1.74;76.99;100447.98;106421;1270;107407;-64
2023/12/21 01:55:27;;;;;;;;;;;;;;;1.80;77.72;100454.37;106412;1270;108704;-64
2023/12/21 01:57:56;;;;;;;;;;;;;;;1.87;77.62;100462.67;106445;1273;97866;-64
2023/12/21 02:00:24;;;;;;;;;;;;;;;1.91;77.60;100467.21;106442;1270;97854;-64
2023/12/21 02:02:52;;;;;;;;;;;;;;;1.96;77.51;100467.27;106447;1273;111235;-64
2023/12/21 02:05:20;;;;;;;;;;;;;;;1.99;77.19;100464.98;106436;1270;109496;-64
2023/12/21 02:07:48;;;;;;;;;;;;;;;1.95;76.86;100455.48;106452;1271;108407;-64
2023/12/21 02:10:18;;;;;;;;;;;;;;;1.90;76.42;100453.63;106402;1270;97929;-65
2023/12/21 02:12:46;;;;;;;;;;;;;;;1.83;75.92;100454.90;106474;1273;97881;-64
2023/12/21 02:15:15;;;;;;;;;;;;;;;1.76;75.88;100456.19;106409;1272;111461;-64
2023/12/21 02:17:46;;;;;;;;;;;;;;;1.70;75.78;100461.67;106471;1270;107242;-65
2023/12/21 02:20:15;;;;;;;;;;;;;;;1.63;75.51;100457.81;106385;1273;108338;-66
2023/12/21 02:22:44;;;;;;;;;;;;;;;1.57;75.47;100452.82;106428;1273;97856;-65
2023/12/21 02:25:14;;;;;;;;;;;;;;;1.53;75.51;100454.09;106464;1272;97977;-65
2023/12/21 02:27:42;;;;;;;;;;;;;;;1.48;75.59;100450.66;106470;1271;111754;-63
2023/12/21 02:30:10;;;;;;;;;;;;;;;1.41;75.20;100448.98;106456;1271;107962;-64
2023/12/21 02:32:39;;;;;;;;;;;;;;;1.28;74.85;100449.48;106443;1270;107792;-63
2023/12/21 02:35:07;;;;;;;;;;;;;;;1.21;74.92;100449.00;106391;1270;97981;-64
2023/12/21 02:37:36;;;;;;;;;;;;;;;1.16;75.16;100449.27;106496;1268;97981;-65
2023/12/21 02:40:04;;;;;;;;;;;;;;;1.10;75.02;100450.27;106435;1270;111867;-64
2023/12/21 02:42:33;;;;;;;;;;;;;;;1.02;74.80;100456.16;106522;1270;107886;-65
2023/12/21 02:45:01;;;;;;;;;;;;;;;0.96;74.74;100452.46;106402;1268;107934;-67
2023/12/21 02:47:29;;;;;;;;;;;;;;;0.88;74.45;100446.66;106414;1273;97918;-65
2023/12/21 02:49:57;;;;;;;;;;;;;;;0.80;74.27;100443.23;106468;1270;97763;-65
2023/12/21 02:52:25;;;;;;;;;;;;;;;0.70;74.02;100440.77;106430;1270;111814;-64
2023/12/21 02:54:53;;;;;;;;;;;;;;;0.59;73.93;100442.90;106437;1270;110306;-65
2023/12/21 02:57:21;;;;;;;;;;;;;;;0.51;73.97;100447.40;106417;1272;107699;-65
2023/12/21 02:59:50;;;;;;;;;;;;;;;0.43;74.10;100446.70;106418;1270;97866;-65
2023/12/21 03:02:18;;;;;;;;;;;;;;;0.36;74.11;100451.14;106397;1270;97885;-65
2023/12/21 03:04:46;;;;;;;;;;;;;;;0.28;74.36;100448.17;106445;1270;111427;-64
2023/12/21 03:07:14;;;;;;;;;;;;;;;0.24;74.48;100448.56;106438;1270;107311;-64
2023/12/21 03:09:42;;;;;;;;;;;;;;;0.19;74.45;100447.59;106450;1270;107731;-63
2023/12/21 03:12:11;;;;;;;;;;;;;;;0.12;74.52;100445.64;106441;1270;97852;-65
2023/12/21 03:14:39;;;;;;;;;;;;;;;0.08;74.74;100440.38;106413;1270;97791;-63
2023/12/21 03:17:07;;;;;;;;;;;;;;;0.06;74.67;100437.81;106432;1270;111576;-67
2023/12/21 03:19:35;;;;;;;;;;;;;;;0.06;74.97;100443.83;106453;1268;107965;-65
2023/12/21 03:22:04;;;;;;;;;;;;;;;0.05;75.02;100444.06;106434;1272;108203;-64
2023/12/21 03:24:32;;;;;;;;;;;;;;;0.04;75.28;100445.16;106473;1270;98449;-65
2023/12/21 03:27:00;;;;;;;;;;;;;;;0.04;75.28;100440.06;106456;1272;97877;-65
2023/12/21 03:29:28;;;;;;;;;;;;;;;0.04;75.30;100437.59;106435;1270;111732;-65
2023/12/21 03:31:57;;;;;;;;;;;;;;;0.02;75.26;100439.81;106438;1270;107983;-66
2023/12/21 03:34:26;;;;;;;;;;;;;;;-0.02;75.12;100440.88;106424;1270;107897;-64
2023/12/21 03:36:54;;;;;;;;;;;;;;;-0.04;75.24;100440.80;106450;1270;97984;-64
2023/12/21 03:39:22;;;;;;;;;;;;;;;-0.06;75.44;100445.48;106477;1270;97887;-65
2023/12/21 03:41:50;;;;;;;;;;;;;;;-0.08;75.24;100448.92;106444;1268;111975;-64
2023/12/21 03:44:20;;;;;;;;;;;;;;;-0.10;75.45;100448.50;106420;1270;108351;-65
2023/12/21 03:46:48;;;;;;;;;;;;;;;-0.13;75.53;100449.70;106427;1270;108152;-64
2023/12/21 03:49:16;;;;;;;;;;;;;;;-0.16;75.47;100449.50;106462;1271;97882;-68
2023/12/21 03:51:45;;;;;;;;;;;;;;;-0.19;75.41;100448.05;106470;1273;97741;-65
2023/12/21 03:54:13;;;;;;;;;;;;;;;-0.22;75.52;100446.45;106466;1268;111555;-65
2023/12/21 03:56:41;;;;;;;;;;;;;;;-0.23;75.73;100449.85;106488;1270;107866;-64
2023/12/21 03:59:10;;;;;;;;;;;;;;;-0.24;75.76;100452.89;106404;1273;108617;-64
2023/12/21 04:01:39;;;;;;;;;;;;;;;-0.25;75.80;100453.96;106428;1271;97878;-65
2023/12/21 04:04:07;;;;;;;;;;;;;;;-0.25;75.83;100457.34;106451;1270;97946;-64
2023/12/21 04:06:35;;;;;;;;;;;;;;;-0.25;76.02;100454.19;106447;1273;111861;-64
2023/12/21 04:09:03;;;;;;;;;;;;;;;-0.26;76.02;100458.09;106394;1270;108849;-63
2023/12/21 04:11:31;;;;;;;;;;;;;;;-0.27;76.05;100462.00;106486;1268;107812;-64
2023/12/21 04:13:59;;;;;;;;;;;;;;;-0.27;76.15;100457.44;106413;1270;97978;-65
2023/12/21 04:16:28;;;;;;;;;;;;;;;-0.27;76.28;100457.94;106429;1271;97873;-64
2023/12/21 04:18:57;;;;;;;;;;;;;;;-0.28;76.12;100459.42;106483;1270;111762;-65
2023/12/21 04:21:26;;;;;;;;;;;;;;;-0.28;76.05;100461.20;106521;1271;108343;-67
2023/12/21 04:23:54;;;;;;;;;;;;;;;-0.28;76.31;100466.66;106422;1273;107900;-64
2023/12/21 04:26:23;;;;;;;;;;;;;;;-0.28;76.23;100465.61;106399;1273;97851;-64
2023/12/21 04:28:52;;;;;;;;;;;;;;;-0.28;76.37;100467.35;106482;1270;97770;-64
2023/12/21 04:31:20;;;;;;;;;;;;;;;-0.26;76.16;100468.50;106425;1270;110550;-65
2023/12/21 04:33:50;;;;;;;;;;;;;;;-0.25;76.45;100465.63;106443;1273;108395;-67
2023/12/21 04:36:19;;;;;;;;;;;;;;;-0.23;76.66;100462.54;106464;1270;107875;-67
2023/12/21 04:38:55;;;;;;;;;;;;;;;-0.23;76.57;100454.23;106456;1271;97777;-65
2023/12/21 04:41:24;;;;;;;;;;;;;;;-0.22;76.69;100455.58;106453;1270;97766;-64
2023/12/21 04:43:52;;;;;;;;;;;;;;;-0.21;76.85;100457.85;106415;1270;112019;-65
2023/12/21 04:46:20;;;;;;;;;;;;;;;-0.22;76.76;100459.46;106451;1270;108494;-64
2023/12/21 04:48:49;;;;;;;;;;;;;;;-0.22;76.86;100457.89;106434;1268;107285;-65
2023/12/21 04:51:17;;;;;;;;;;;;;;;-0.21;76.79;100457.48;106424;1270;97850;-65
2023/12/21 04:53:45;;;;;;;;;;;;;;;-0.21;76.57;100463.65;106478;1268;97955;-65
2023/12/21 04:56:13;;;;;;;;;;;;;;;-0.21;76.56;100464.33;106457;1268;112106;-64
2023/12/21 04:58:42;;;;;;;;;;;;;;;-0.19;76.75;100464.64;106398;1270;108251;-65
2023/12/21 05:01:10;;;;;;;;;;;;;;;-0.19;76.41;100460.23;106419;1268;108479;-65
2023/12/21 05:03:39;;;;;;;;;;;;;;;-0.19;76.65;100459.88;106485;1273;97973;-64
2023/12/21 05:06:07;;;;;;;;;;;;;;;-0.18;76.64;100459.63;106514;1268;97859;-65
2023/12/21 05:08:36;;;;;;;;;;;;;;;-0.17;76.55;100460.80;106498;1269;111740;-65
2023/12/21 05:11:04;;;;;;;;;;;;;;;-0.17;76.66;100459.73;106455;1268;108130;-64
2023/12/21 05:13:32;;;;;;;;;;;;;;;-0.17;76.71;100467.67;106427;1270;105880;-64
2023/12/21 05:16:01;;;;;;;;;;;;;;;-0.17;76.68;100468.91;106449;1268;97859;-63
2023/12/21 05:18:29;;;;;;;;;;;;;;;-0.17;76.64;100468.01;106467;1268;97780;-65
2023/12/21 05:20:57;;;;;;;;;;;;;;;-0.15;76.60;100466.71;106473;1270;112193;-64
2023/12/21 05:23:25;;;;;;;;;;;;;;;-0.14;76.99;100467.03;106505;1268;107939;-65
2023/12/21 05:25:53;;;;;;;;;;;;;;;-0.13;76.84;100473.83;106455;1270;107241;-65
2023/12/21 05:28:22;;;;;;;;;;;;;;;-0.10;76.76;100476.39;106461;1268;97878;-68
2023/12/21 05:30:51;;;;;;;;;;;;;;;-0.10;76.75;100477.26;106486;1268;97986;-65
2023/12/21 05:33:20;;;;;;;;;;;;;;;-0.09;76.76;100471.52;106461;1268;111102;-66
2023/12/21 05:35:48;;;;;;;;;;;;;;;-0.06;76.77;100470.31;106523;1270;107893;-65
2023/12/21 05:38:16;;;;;;;;;;;;;;;-0.01;76.82;100471.52;106398;1273;107948;-64
2023/12/21 05:40:45;;;;;;;;;;;;;;;0.03;77.17;100477.69;106431;1270;97880;-65
2023/12/21 05:43:13;;;;;;;;;;;;;;;0.06;77.21;100474.86;106485;1273;97770;-64
2023/12/21 05:45:41;;;;;;;;;;;;;;;0.11;77.32;100472.34;106488;1272;112414;-66
2023/12/21 05:48:09;;;;;;;;;;;;;;;0.17;77.42;100468.70;106432;1268;107548;-65
2023/12/21 05:50:37;;;;;;;;;;;;;;;0.23;77.64;100469.09;106488;1268;107986;-65
2023/12/21 05:53:07;;;;;;;;;;;;;;;0.27;77.72;100461.63;106492;1273;97925;-65
2023/12/21 05:55:35;;;;;;;;;;;;;;;0.35;77.87;100456.15;106502;1270;97885;-66
2023/12/21 05:58:03;;;;;;;;;;;;;;;0.44;78.28;100457.07;106445;1270;110853;-66
2023/12/21 06:00:31;;;;;;;;;;;;;;;0.52;78.22;100454.41;106405;1269;108818;-68
2023/12/21 06:02:59;;;;;;;;;;;;;;;0.58;78.18;100461.31;106500;1268;106804;-65
2023/12/21 06:05:28;;;;;;;;;;;;;;;0.65;78.30;100461.13;106458;1268;97965;-64
2023/12/21 06:07:57;;;;;;;;;;;;;;;0.71;78.16;100460.27;106466;1268;97897;-66
2023/12/21 06:10:25;;;;;;;;;;;;;;;0.75;78.02;100459.73;106491;1268;112314;-65
2023/12/21 06:12:53;;;;;;;;;;;;;;;0.79;77.90;100452.45;106490;1273;107454;-65
2023/12/21 06:15:21;;;;;;;;;;;;;;;0.84;78.05;100453.05;106450;1272;108479;-65
2023/12/21 06:17:49;;;;;;;;;;;;;;;0.91;78.14;100456.92;106498;1271;98577;-65
2023/12/21 06:20:18;;;;;;;;;;;;;;;0.98;77.93;100463.67;106497;1273;97850;-65
2023/12/21 06:22:46;;;;;;;;;;;;;;;1.02;78.02;100460.60;106518;1269;111482;-66
2023/12/21 06:25:15;;;;;;;;;;;;;;;1.05;78.05;100461.83;106450;1268;107455;-67
2023/12/21 06:27:43;;;;;;;;;;;;;;;1.08;78.00;100464.38;106453;1268;107038;-65
2023/12/21 06:30:12;;;;;;;;;;;;;;;1.08;77.65;100458.71;106339;1268;97893;-65
2023/12/21 06:32:40;;;;;;;;;;;;;;;1.09;77.66;100456.67;106412;1269;97892;-69
2023/12/21 06:35:08;;;;;;;;;;;;;;;1.13;77.63;100455.60;106439;1268;111657;-65
2023/12/21 06:37:37;;;;;;;;;;;;;;;1.18;77.56;100454.25;106429;1268;108542;-65
2023/12/21 06:40:05;;;;;;;;;;;;;;;1.20;77.33;100452.40;106420;1268;106317;-65
2023/12/21 06:42:34;;;;;;;;;;;;;;;1.19;77.27;100453.49;106425;1269;97930;-64
2023/12/21 06:45:03;;;;;;;;;;;;;;;1.25;77.58;100451.05;106423;1268;97953;-65
2023/12/21 06:47:31;;;;;;;;;;;;;;;1.34;77.84;100446.33;106488;1268;110792;-65
2023/12/21 06:49:59;;;;;;;;;;;;;;;1.45;78.28;100459.84;106434;1272;108467;-65
2023/12/21 06:52:28;;;;;;;;;;;;;;;1.52;78.09;100463.55;106528;1268;107360;-64
2023/12/21 06:54:57;;;;;;;;;;;;;;;1.58;77.87;100465.14;106435;1268;97887;-64
2023/12/21 06:57:25;;;;;;;;;;;;;;;1.65;78.01;100461.42;106517;1273;97872;-66
2023/12/21 06:59:53;;;;;;;;;;;;;;;1.71;77.97;100455.39;106480;1268;111260;-65
2023/12/21 07:02:21;;;;;;;;;;;;;;;1.77;77.93;100455.75;106401;1268;107894;-65
2023/12/21 07:04:49;;;;;;;;;;;;;;;1.83;77.93;100448.19;106437;1268;107392;-68
2023/12/21 07:07:17;;;;;;;;;;;;;;;1.91;78.15;100450.06;106422;1269;97922;-67
2023/12/21 07:09:45;;;;;;;;;;;;;;;1.96;77.91;100451.52;106508;1269;97846;-64
2023/12/21 07:12:14;;;;;;;;;;;;;;;2.01;77.96;100449.61;106565;1269;111778;-65
2023/12/21 07:14:42;;;;;;;;;;;;;;;2.07;77.70;100439.60;106454;1268;107946;-63
2023/12/21 07:17:10;;;;;;;;;;;;;;;2.11;77.41;100439.33;106420;1268;106894;-66
2023/12/21 07:19:38;;;;;;;;;;;;;;;2.20;77.64;100438.45;106447;1268;97903;-65
2023/12/21 07:22:07;;;;;;;;;;;;;;;2.30;77.62;100437.88;106436;1273;97893;-64
2023/12/21 07:24:36;;;;;;;;;;;;;;;2.37;77.71;100435.89;106476;1268;112199;-64
2023/12/21 07:27:04;;;;;;;;;;;;;;;2.46;77.83;100441.54;106448;1268;108662;-64
2023/12/21 07:29:32;;;;;;;;;;;;;;;2.53;77.90;100441.14;106440;1269;108612;-65
2023/12/21 07:32:00;;;;;;;;;;;;;;;2.57;77.92;100438.55;106445;1268;97863;-65
2023/12/21 07:34:28;;;;;;;;;;;;;;;2.59;77.32;100440.02;106497;1272;97879;-66
2023/12/21 07:36:57;;;;;;;;;;;;;;;2.59;77.06;100437.59;106537;1273;111495;-65
2023/12/21 07:39:25;;;;;;;;;;;;;;;2.59;77.03;100439.20;106531;1268;107977;-66
2023/12/21 07:41:54;;;;;;;;;;;;;;;2.59;76.87;100438.26;106456;1268;108580;-65
2023/12/21 07:44:22;;;;;;;;;;;;;;;2.61;77.26;100441.88;106473;1268;97742;-65
2023/12/21 07:46:50;;;;;;;;;;;;;;;2.66;77.19;100442.30;106434;1268;97975;-65
2023/12/21 07:49:18;;;;;;;;;;;;;;;2.70;77.00;100438.86;106399;1268;111329;-65
2023/12/21 07:51:47;;;;;;;;;;;;;;;2.74;76.87;100434.52;106459;1268;109787;-65
2023/12/21 07:54:15;;;;;;;;;;;;;;;2.79;76.79;100439.34;106459;1268;108232;-65
2023/12/21 07:56:43;;;;;;;;;;;;;;;2.84;76.72;100445.24;106461;1268;97772;-64
2023/12/21 07:59:11;;;;;;;;;;;;;;;2.87;76.70;100448.78;106523;1269;97753;-63
2023/12/21 08:01:39;;;;;;;;;;;;;;;2.88;76.60;100445.75;106455;1268;110931;-65
2023/12/21 08:04:08;;;;;;;;;;;;;;;2.89;76.48;100442.80;106495;1268;108447;-65
2023/12/21 08:06:37;;;;;;;;;;;;;;;2.90;76.42;100446.33;106512;1268;107219;-65
2023/12/21 08:09:05;;;;;;;;;;;;;;;2.91;76.19;100446.98;106440;1268;97920;-65
2023/12/21 08:11:33;;;;;;;;;;;;;;;2.91;76.21;100444.48;106465;1273;97836;-64
2023/12/21 08:14:02;;;;;;;;;;;;;;;2.93;76.26;100443.84;106418;1268;111919;-65
2023/12/21 08:16:30;;;;;;;;;;;;;;;2.95;76.29;100439.48;106447;1268;108779;-64
2023/12/21 08:18:59;;;;;;;;;;;;;;;2.97;76.15;100442.15;106417;1268;108326;-64
2023/12/21 08:21:27;;;;;;;;;;;;;;;3.00;76.33;100435.94;106402;1268;97849;-64
2023/12/21 08:23:55;;;;;;;;;;;;;;;3.03;76.30;100430.66;106469;1268;97912;-64
2023/12/21 08:26:24;;;;;;;;;;;;;;;3.04;76.10;100427.94;106492;1268;111569;-65
2023/12/21 08:28:52;;;;;;;;;;;;;;;3.05;76.04;100423.98;106512;1268;108628;-64
2023/12/21 08:31:27;;;;;;;;;;;;;;;3.06;76.04;100417.72;106453;1271;108550;-66
2023/12/21 08:33:56;;;;;;;;;;;;;;;3.06;75.75;100422.81;106494;1268;97903;-65
2023/12/21 08:36:24;;;;;;;;;;;;;;;3.07;75.96;100426.27;106547;1268;97749;-64
2023/12/21 08:38:53;;;;;;;;;;;;;;;3.09;75.73;100421.00;106468;1268;111618;-65
2023/12/21 08:41:24;;;;;;;;;;;;;;;3.13;75.85;100415.84;106534;1268;107942;-67
2023/12/21 08:43:54;;;;;;;;;;;;;;;3.17;75.98;100403.02;106434;1268;108472;-65
2023/12/21 08:46:23;;;;;;;;;;;;;;;3.21;75.74;100402.02;106446;1268;97988;-64
2023/12/21 08:48:52;;;;;;;;;;;;;;;3.26;75.90;100393.17;106486;1268;97869;-64
2023/12/21 08:51:20;;;;;;;;;;;;;;;3.33;75.86;100382.88;106503;1268;110005;-65
2023/12/21 08:53:48;;;;;;;;;;;;;;;3.40;75.83;100380.77;106460;1268;107589;-65
2023/12/21 08:56:16;;;;;;;;;;;;;;;3.51;75.72;100371.95;106471;1268;107893;-65
2023/12/21 08:58:44;;;;;;;;;;;;;;;3.61;75.64;100365.44;106434;1268;99768;-65
2023/12/21 09:01:13;;;;;;;;;;;;;;;3.72;75.78;100359.00;106538;1271;97839;-65
2023/12/21 09:03:43;;;;;;;;;;;;;;;3.84;75.89;100355.20;106523;1268;111811;-64
2023/12/21 09:06:12;;;;;;;;;;;;;;;3.96;75.39;100349.84;106533;1269;108900;-64
2023/12/21 09:08:40;;;;;;;;;;;;;;;4.16;75.39;100349.50;106481;1268;107626;-64
2023/12/21 09:11:08;;;;;;;;;;;;;;;4.43;75.17;100342.86;106510;1268;98554;-66
2023/12/21 09:13:36;;;;;;;;;;;;;;;4.70;75.24;100336.20;106502;1268;97866;-66
2023/12/21 09:16:04;;;;;;;;;;;;;;;4.95;74.82;100330.90;106484;1268;111361;-64
2023/12/21 09:18:33;;;;;;;;;;;;;;;5.17;74.40;100330.54;106492;1268;107910;-64
2023/12/21 09:21:03;;;;;;;;;;;;;;;5.51;74.28;100328.42;106460;1268;107089;-65
2023/12/21 09:23:31;;;;;;;;;;;;;;;6.05;73.92;100313.70;106448;1268;97903;-65
2023/12/21 09:25:59;;;;;;;;;;;;;;;6.63;73.06;100300.67;106554;1268;97952;-65
2023/12/21 09:28:27;;;;;;;;;;;;;;;7.22;72.81;100303.05;106466;1268;111353;-65
2023/12/21 09:30:56;;;;;;;;;;;;;;;7.75;72.46;100295.84;106390;1268;108124;-65
2023/12/21 09:33:25;;;;;;;;;;;;;;;7.82;68.81;100291.33;106445;1268;107610;-64
2023/12/21 09:35:57;;;;;;;;;;;;;;;7.67;67.74;100285.44;106448;1268;97879;-65
2023/12/21 09:38:26;;;;;;;;;;;;;;;7.53;67.54;100276.79;106402;1268;97767;-65
2023/12/21 09:40:57;;;;;;;;;;;;;;;7.43;67.33;100273.36;106438;1268;112273;-65
2023/12/21 09:43:27;;;;;;;;;;;;;;;7.32;65.58;100274.62;106418;1268;108566;-64
2023/12/21 09:45:57;;;;;;;;;;;;;;;7.14;64.79;100272.85;106494;1268;108934;-65
2023/12/21 09:48:26;;;;;;;;;;;;;;;7.03;65.13;100263.09;106575;1268;97869;-65
2023/12/21 09:50:55;;;;;;;;;;;;;;;7.05;66.08;100262.88;106565;1268;97728;-67
2023/12/21 09:53:25;;;;;;;;;;;;;;;7.17;66.33;100263.14;106555;1268;111643;-67
2023/12/21 09:55:53;;;;;;;;;;;;;;;7.39;66.60;100254.39;106432;1268;108375;-65
2023/12/21 09:58:22;;;;;;;;;;;;;;;8.05;66.75;100247.24;106444;1268;108547;-65
2023/12/21 10:00:50;;;;;;;;;;;;;;;9.26;65.17;100243.22;106497;1268;97880;-65
2023/12/21 10:03:19;;;;;;;;;;;;;;;9.58;63.30;100243.00;106493;1268;98020;-65
2023/12/21 10:05:48;;;;;;;;;;;;;;;9.75;62.95;100240.89;106540;1268;111903;-66
2023/12/21 10:08:18;;;;;;;;;;;;;;;9.91;60.57;100243.11;106525;1267;107682;-66
2023/12/21 10:10:46;;;;;;;;;;;;;;;9.76;59.61;100240.42;106481;1268;109080;-63
2023/12/21 10:13:16;;;;;;;;;;;;;;;9.79;57.02;100240.82;106410;1268;97857;-64
2023/12/21 10:15:46;;;;;;;;;;;;;;;10.10;55.88;100235.42;106115;1268;442256;-63
2023/12/21 10:18:15;;;;;;;;;;;;;;;10.65;53.50;100228.77;106452;1268;111946;-65
2023/12/21 10:20:44;;;;;;;;;;;;;;;11.22;53.00;100224.79;106496;1268;109886;-64
2023/12/21 10:23:12;;;;;;;;;;;;;;;11.58;53.06;100223.65;106446;1273;108412;-64
2023/12/21 10:25:44;;;;;;;;;;;;;;;11.35;52.02;100228.17;106484;1273;97775;-64
2023/12/21 10:28:12;;;;;;;;;;;;;;;11.04;49.77;100224.45;106487;1268;97883;-65
2023/12/21 10:30:41;;;;;;;;;;;;;;;10.68;48.54;100221.16;106468;1272;112183;-66
2023/12/21 10:33:12;;;;;;;;;;;;;;;10.48;50.14;100216.39;106426;1268;108586;-64
2023/12/21 10:35:40;;;;;;;;;;;;;;;10.44;49.79;100215.41;106425;1268;108493;-65
2023/12/21 10:38:09;;;;;;;;;;;;;;;10.29;50.52;100209.80;106448;1268;97966;-64
2023/12/21 10:40:38;;;;;;;;;;;;;;;10.19;50.63;100202.43;106474;1268;97866;-65
2023/12/21 10:43:07;;;;;;;;;;;;;;;10.21;51.71;100190.31;106472;1268;111465;-66
2023/12/21 10:45:35;;;;;;;;;;;;;;;10.52;49.73;100188.06;106424;1268;108679;-65
2023/12/21 10:48:08;;;;;;;;;;;;;;;10.88;49.52;100184.19;106466;1272;108819;-65
2023/12/21 10:50:37;;;;;;;;;;;;;;;11.33;48.17;100184.39;106498;1268;97859;-66
2023/12/21 10:53:09;;;;;;;;;;;;;;;11.19;48.41;100179.63;106465;1268;97745;-65
2023/12/21 10:55:39;;;;;;;;;;;;;;;10.99;48.15;100172.83;106462;1268;112137;-64
2023/12/21 10:58:08;;;;;;;;;;;;;;;10.82;47.98;100163.45;106417;1269;108397;-64
2023/12/21 11:00:36;;;;;;;;;;;;;;;10.66;47.58;100156.41;106507;1271;107015;-65
2023/12/21 11:03:07;;;;;;;;;;;;;;;10.57;48.89;100153.91;106483;1268;97937;-68
2023/12/21 11:05:36;;;;;;;;;;;;;;;10.72;49.40;100147.60;106510;1268;97809;-64
2023/12/21 11:08:06;;;;;;;;;;;;;;;10.96;48.60;100145.92;106468;1268;111982;-64
2023/12/21 11:10:34;;;;;;;;;;;;;;;11.10;47.86;100140.05;106482;1272;107614;-64
2023/12/21 11:13:03;;;;;;;;;;;;;;;11.14;45.96;100146.58;106474;1268;108351;-64
2023/12/21 11:15:32;;;;;;;;;;;;;;;11.11;45.55;100143.53;106390;1273;97849;-66
2023/12/21 11:18:04;;;;;;;;;;;;;;;11.23;45.05;100136.66;106469;1268;97869;-67
2023/12/21 11:20:36;;;;;;;;;;;;;;;11.39;44.02;100134.94;106518;1268;110506;-65
2023/12/21 11:23:15;;;;;;;;;;;;;;;11.60;43.70;100136.42;106471;1268;109487;-66
2023/12/21 11:25:43;;;;;;;;;;;;;;;11.66;43.41;100130.92;106477;1268;108425;-64
2023/12/21 11:28:11;;;;;;;;;;;;;;;11.64;44.18;100126.13;106380;1270;97967;-65
2023/12/21 11:30:39;;;;;;;;;;;;;;;11.65;44.03;100120.48;106443;1268;97767;-65
2023/12/21 11:33:09;;;;;;;;;;;;;;;11.66;44.12;100112.67;106421;1268;110934;-65
2023/12/21 11:35:37;;;;;;;;;;;;;;;11.63;44.80;100114.21;106494;1268;108089;-64
2023/12/21 11:38:06;;;;;;;;;;;;;;;11.66;44.96;100112.45;106441;1268;108210;-65
2023/12/21 11:40:37;;;;;;;;;;;;;;;11.72;45.10;100111.04;106461;1268;97888;-68
2023/12/21 11:43:06;;;;;;;;;;;;;;;11.70;43.03;100115.97;106419;1268;97804;-67
2023/12/21 11:45:38;;;;;;;;;;;;;;;11.52;44.61;100115.46;106461;1268;111910;-65
2023/12/21 11:48:11;;;;;;;;;;;;;;;11.45;44.75;100108.52;106446;1268;110308;-65
2023/12/21 11:50:40;;;;;;;;;;;;;;;11.36;44.34;100106.37;106464;1268;108623;-64
2023/12/21 11:53:09;;;;;;;;;;;;;;;11.20;43.70;100107.45;106488;1268;97885;-65
2023/12/21 11:55:43;;;;;;;;;;;;;;;10.99;43.17;100109.67;106522;1268;97871;-65
2023/12/21 11:58:18;;;;;;;;;;;;;;;10.75;43.66;100103.14;106499;1268;111956;-65
2023/12/21 12:00:51;;;;;;;;;;;;;;;10.55;43.76;100095.80;106470;1268;107152;-63
2023/12/21 12:03:20;;;;;;;;;;;;;;;10.33;44.15;100088.75;106465;1268;107131;-64
2023/12/21 12:05:53;;;;;;;;;;;;;;;10.17;44.47;100088.37;106526;1268;97894;-64
2023/12/21 12:08:25;;;;;;;;;;;;;;;10.00;44.82;100080.17;106478;1268;97770;-64
2023/12/21 12:10:55;;;;;;;;;;;;;;;9.82;45.33;100079.58;106473;1268;112316;-63
2023/12/21 12:13:23;;;;;;;;;;;;;;;9.66;45.82;100073.37;106400;1268;107634;-66
2023/12/21 12:15:52;;;;;;;;;;;;;;;9.54;46.08;100076.54;106440;1268;106750;-66
2023/12/21 12:18:21;;;;;;;;;;;;;;;9.40;46.39;100074.25;106474;1271;97867;-66
2023/12/21 12:20:51;;;;;;;;;;;;;;;9.29;46.95;100072.95;106444;1268;97735;-67
2023/12/21 12:23:19;;;;;;;;;;;;;;;9.21;46.96;100069.91;106494;1268;111211;-67
2023/12/21 12:25:48;;;;;;;;;;;;;;;9.12;47.28;100065.77;106485;1268;108394;-65
2023/12/21 12:28:18;;;;;;;;;;;;;;;9.06;47.66;100065.62;106481;1268;109023;-65
2023/12/21 12:30:48;;;;;;;;;;;;;;;8.98;47.67;100061.33;106405;1268;97872;-64
2023/12/21 12:33:17;;;;;;;;;;;;;;;8.85;48.07;100055.92;106399;1270;97850;-65
2023/12/21 12:35:48;;;;;;;;;;;;;;;8.73;48.21;100054.32;106473;1272;112134;-65